createdAt,value
2017-04-04T00:00:03.663Z,848.24
2017-04-04T00:00:07.974Z,848.26
2017-04-04T00:00:12.286Z,848.27
2017-04-04T00:00:16.710Z,848.22
2017-04-04T00:00:21.134Z,848.26
2017-04-04T00:00:25.563Z,848.22
2017-04-04T00:00:29.989Z,848.22
2017-04-04T00:00:34.408Z,848.2
2017-04-04T00:00:38.834Z,848.24
2017-04-04T00:00:43.261Z,848.24
2017-04-04T00:00:47.699Z,848.26
2017-04-04T00:00:52.137Z,848.24
2017-04-04T00:00:56.562Z,848.26
2017-04-04T00:01:00.992Z,848.23
2017-04-04T00:01:05.655Z,848.18
2017-04-04T00:01:10.082Z,848.22
2017-04-04T00:01:14.389Z,848.27
2017-04-04T00:01:18.700Z,848.25
2017-04-04T00:01:23.122Z,848.29
2017-04-04T00:01:27.545Z,848.26
2017-04-04T00:01:31.978Z,848.26
2017-04-04T00:01:36.406Z,848.28
2017-04-04T00:01:40.834Z,848.25
2017-04-04T00:01:45.143Z,848.24
2017-04-04T00:01:49.609Z,848.26
2017-04-04T00:01:53.814Z,848.25
2017-04-04T00:01:58.239Z,848.27
2017-04-04T00:02:02.604Z,848.27
2017-04-04T00:02:06.918Z,848.29
2017-04-04T00:02:11.224Z,848.19
2017-04-04T00:02:15.543Z,848.25
2017-04-04T00:02:19.855Z,848.27
2017-04-04T00:02:24.290Z,848.25
2017-04-04T00:02:28.711Z,848.28
2017-04-04T00:02:33.132Z,848.26
2017-04-04T00:02:37.557Z,848.26
2017-04-04T00:02:41.981Z,848.27
2017-04-04T00:02:46.297Z,848.27
2017-04-04T00:02:50.480Z,848.24
2017-04-04T00:02:54.905Z,848.25
2017-04-04T00:02:59.334Z,848.27
2017-04-04T00:03:03.757Z,848.23
2017-04-04T00:03:08.186Z,848.18
2017-04-04T00:03:12.625Z,848.22
2017-04-04T00:03:16.933Z,848.23
2017-04-04T00:03:21.245Z,848.19
2017-04-04T00:03:25.555Z,848.23
2017-04-04T00:03:29.978Z,848.27
2017-04-04T00:03:34.407Z,848.26
2017-04-04T00:03:38.837Z,848.28
2017-04-04T00:03:43.262Z,848.25
2017-04-04T00:03:47.575Z,848.29
2017-04-04T00:03:52.007Z,848.26
2017-04-04T00:03:56.434Z,848.24
2017-04-04T00:04:00.859Z,848.23
2017-04-04T00:04:05.433Z,848.26
2017-04-04T00:04:09.738Z,848.26
2017-04-04T00:04:14.161Z,848.26
2017-04-04T00:04:18.479Z,848.26
2017-04-04T00:04:22.901Z,848.26
2017-04-04T00:04:27.320Z,848.25
2017-04-04T00:04:31.747Z,848.26
2017-04-04T00:04:36.221Z,848.23
2017-04-04T00:04:40.539Z,848.25
2017-04-04T00:04:44.964Z,848.25
2017-04-04T00:04:49.394Z,848.24
2017-04-04T00:04:53.827Z,848.26
2017-04-04T00:04:58.248Z,848.23
2017-04-04T00:05:02.932Z,848.25
2017-04-04T00:05:07.241Z,848.23
2017-04-04T00:05:11.673Z,848.25
2017-04-04T00:05:16.101Z,848.27
2017-04-04T00:05:20.577Z,848.26
2017-04-04T00:05:24.771Z,848.24
2017-04-04T00:05:29.076Z,848.22
2017-04-04T00:05:33.389Z,848.2
2017-04-04T00:05:37.702Z,848.21
2017-04-04T00:05:42.012Z,848.19
2017-04-04T00:05:46.218Z,848.26
2017-04-04T00:05:50.538Z,848.23
2017-04-04T00:05:54.993Z,848.21
2017-04-04T00:05:59.422Z,848.23
2017-04-04T00:06:03.751Z,848.24
2017-04-04T00:06:07.948Z,848.25
2017-04-04T00:06:12.271Z,848.25
2017-04-04T00:06:16.699Z,848.25
2017-04-04T00:06:21.007Z,848.23
2017-04-04T00:06:25.445Z,848.22
2017-04-04T00:06:29.895Z,848.21
2017-04-04T00:06:34.329Z,848.22
2017-04-04T00:06:38.526Z,848.25
2017-04-04T00:06:42.841Z,848.23
2017-04-04T00:06:46.925Z,848.25
2017-04-04T00:06:51.232Z,848.23
2017-04-04T00:06:55.660Z,848.24
2017-04-04T00:06:59.987Z,848.22
2017-04-04T00:07:04.532Z,848.23
2017-04-04T00:07:08.962Z,848.24
2017-04-04T00:07:13.390Z,848.22
2017-04-04T00:07:17.704Z,848.24
2017-04-04T00:07:21.791Z,848.22
2017-04-04T00:07:26.105Z,848.13
2017-04-04T00:07:30.421Z,848.18
2017-04-04T00:07:34.858Z,848.23
2017-04-04T00:07:39.055Z,848.22
2017-04-04T00:07:43.255Z,848.22
2017-04-04T00:07:47.685Z,848.24
2017-04-04T00:07:52.006Z,848.22
2017-04-04T00:07:56.433Z,848.18
2017-04-04T00:08:00.796Z,848.19
2017-04-04T00:08:05.341Z,848.15
2017-04-04T00:08:09.772Z,848.22
2017-04-04T00:08:14.205Z,848.21
2017-04-04T00:08:18.526Z,848.22
2017-04-04T00:08:22.951Z,848.2
2017-04-04T00:08:27.379Z,848.21
2017-04-04T00:08:31.694Z,848.23
2017-04-04T00:08:36.051Z,848.16
2017-04-04T00:08:40.137Z,848.15
2017-04-04T00:08:44.443Z,848.13
2017-04-04T00:08:48.755Z,848.18
2017-04-04T00:08:53.073Z,848.19
2017-04-04T00:08:57.380Z,848.16
2017-04-04T00:09:01.819Z,848.19
2017-04-04T00:09:06.254Z,848.2
2017-04-04T00:09:10.730Z,848.15
2017-04-04T00:09:15.039Z,848.16
2017-04-04T00:09:19.469Z,848.18
2017-04-04T00:09:23.793Z,848.16
2017-04-04T00:09:28.230Z,848.2
2017-04-04T00:09:32.535Z,848.22
2017-04-04T00:09:36.960Z,848.17
2017-04-04T00:09:41.389Z,848.17
2017-04-04T00:09:45.628Z,848.17
2017-04-04T00:09:49.942Z,848.17
2017-04-04T00:09:54.134Z,848.17
2017-04-04T00:09:58.450Z,848.14
2017-04-04T00:10:02.922Z,848.1
2017-04-04T00:10:07.244Z,848.12
2017-04-04T00:10:11.682Z,848.1
2017-04-04T00:10:15.884Z,848.1
2017-04-04T00:10:20.314Z,848.1
2017-04-04T00:10:24.634Z,848.08
2017-04-04T00:10:28.828Z,848.1
2017-04-04T00:10:33.027Z,848.1
2017-04-04T00:10:37.109Z,848.11
2017-04-04T00:10:41.542Z,848.17
2017-04-04T00:10:45.864Z,848.13
2017-04-04T00:10:50.067Z,848.11
2017-04-04T00:10:54.382Z,848.12
2017-04-04T00:10:58.693Z,848.11
2017-04-04T00:11:03.005Z,848.08
2017-04-04T00:11:07.367Z,848.11
2017-04-04T00:11:11.452Z,848.12
2017-04-04T00:11:15.878Z,848.11
2017-04-04T00:11:20.200Z,848.08
2017-04-04T00:11:24.623Z,848.07
2017-04-04T00:11:29.053Z,848.04
2017-04-04T00:11:33.362Z,848.06
2017-04-04T00:11:37.788Z,848.03
2017-04-04T00:11:42.103Z,848.07
2017-04-04T00:11:46.536Z,848.1
2017-04-04T00:11:51.002Z,848.07
2017-04-04T00:11:55.423Z,848.09
2017-04-04T00:11:59.847Z,848.09
2017-04-04T00:12:04.275Z,848.07
2017-04-04T00:12:08.736Z,848.05
2017-04-04T00:12:13.169Z,848.07
2017-04-04T00:12:17.595Z,848.04
2017-04-04T00:12:21.901Z,848.03
2017-04-04T00:12:26.215Z,848.03
2017-04-04T00:12:30.643Z,848.01
2017-04-04T00:12:34.952Z,848
2017-04-04T00:12:39.421Z,848.03
2017-04-04T00:12:43.728Z,848.06
2017-04-04T00:12:48.163Z,848
2017-04-04T00:12:52.590Z,848.03
2017-04-04T00:12:57.013Z,848.03
2017-04-04T00:13:01.440Z,848.07
2017-04-04T00:13:05.760Z,848
2017-04-04T00:13:10.085Z,847.99
2017-04-04T00:13:14.508Z,848.01
2017-04-04T00:13:18.816Z,848.02
2017-04-04T00:13:23.240Z,848.02
2017-04-04T00:13:27.663Z,848.01
2017-04-04T00:13:32.100Z,848.01
2017-04-04T00:13:36.534Z,848.01
2017-04-04T00:13:40.963Z,848.04
2017-04-04T00:13:45.390Z,848.02
2017-04-04T00:13:49.814Z,848.01
2017-04-04T00:13:54.261Z,848.03
2017-04-04T00:13:58.697Z,848
2017-04-04T00:14:03.118Z,848.03
2017-04-04T00:14:07.304Z,848.03
2017-04-04T00:14:11.736Z,848.03
2017-04-04T00:14:16.159Z,848.05
2017-04-04T00:14:20.578Z,848.05
2017-04-04T00:14:24.880Z,848.05
2017-04-04T00:14:29.190Z,848.05
2017-04-04T00:14:33.502Z,848.07
2017-04-04T00:14:37.928Z,848.06
2017-04-04T00:14:42.240Z,848.07
2017-04-04T00:14:46.556Z,848.07
2017-04-04T00:14:51.032Z,848.09
2017-04-04T00:14:55.458Z,848.07
2017-04-04T00:14:59.765Z,848.05
2017-04-04T00:15:04.170Z,848.03
2017-04-04T00:15:08.518Z,848.11
2017-04-04T00:15:12.942Z,848.07
2017-04-04T00:15:17.131Z,848.08
2017-04-04T00:15:21.442Z,848.11
2017-04-04T00:15:25.917Z,848.09
2017-04-04T00:15:30.341Z,848.1
2017-04-04T00:15:34.416Z,848.08
2017-04-04T00:15:38.848Z,848.11
2017-04-04T00:15:43.277Z,848.14
2017-04-04T00:15:47.694Z,848.11
2017-04-04T00:15:52.013Z,848.11
2017-04-04T00:15:56.482Z,848.14
2017-04-04T00:16:00.904Z,848.15
2017-04-04T00:16:05.586Z,848.21
2017-04-04T00:16:09.662Z,848.17
2017-04-04T00:16:14.085Z,848.12
2017-04-04T00:16:18.394Z,848.12
2017-04-04T00:16:22.823Z,848.2
2017-04-04T00:16:27.132Z,848.18
2017-04-04T00:16:31.601Z,848.21
2017-04-04T00:16:35.676Z,848.19
2017-04-04T00:16:39.982Z,848.21
2017-04-04T00:16:44.342Z,848.18
2017-04-04T00:16:48.768Z,848.2
2017-04-04T00:16:53.193Z,848.19
2017-04-04T00:16:57.621Z,848.16
2017-04-04T00:17:02.094Z,848.17
2017-04-04T00:17:06.519Z,848.24
2017-04-04T00:17:10.827Z,848.23
2017-04-04T00:17:15.256Z,848.22
2017-04-04T00:17:19.681Z,848.23
2017-04-04T00:17:23.991Z,848.2
2017-04-04T00:17:28.300Z,848.2
2017-04-04T00:17:32.729Z,848.25
2017-04-04T00:17:37.154Z,848.24
2017-04-04T00:17:41.576Z,848.22
2017-04-04T00:17:45.997Z,848.27
2017-04-04T00:17:50.422Z,848.27
2017-04-04T00:17:54.732Z,848.27
2017-04-04T00:17:59.156Z,848.28
2017-04-04T00:18:03.687Z,848.28
2017-04-04T00:18:08.006Z,848.3
2017-04-04T00:18:12.473Z,848.28
2017-04-04T00:18:16.776Z,848.32
2017-04-04T00:18:20.972Z,848.34
2017-04-04T00:18:25.160Z,848.31
2017-04-04T00:18:29.347Z,848.29
2017-04-04T00:18:33.656Z,848.32
2017-04-04T00:18:38.090Z,848.3
2017-04-04T00:18:42.517Z,848.32
2017-04-04T00:18:46.937Z,848.29
2017-04-04T00:18:51.362Z,848.28
2017-04-04T00:18:55.725Z,848.3
2017-04-04T00:19:00.160Z,848.29
2017-04-04T00:19:04.835Z,848.3
2017-04-04T00:19:09.139Z,848.29
2017-04-04T00:19:13.599Z,848.33
2017-04-04T00:19:17.789Z,848.34
2017-04-04T00:19:22.217Z,848.33
2017-04-04T00:19:26.650Z,848.32
2017-04-04T00:19:30.957Z,848.35
2017-04-04T00:19:35.377Z,848.34
2017-04-04T00:19:39.801Z,848.36
2017-04-04T00:19:44.229Z,848.36
2017-04-04T00:19:48.664Z,848.35
2017-04-04T00:19:53.095Z,848.37
2017-04-04T00:19:57.400Z,848.37
2017-04-04T00:20:01.870Z,848.35
2017-04-04T00:20:06.301Z,848.39
2017-04-04T00:20:10.376Z,848.37
2017-04-04T00:20:14.807Z,848.38
2017-04-04T00:20:19.234Z,848.38
2017-04-04T00:20:23.664Z,848.4
2017-04-04T00:20:28.091Z,848.4
2017-04-04T00:20:32.526Z,848.39
2017-04-04T00:20:36.960Z,848.38
2017-04-04T00:20:41.392Z,848.4
2017-04-04T00:20:45.692Z,848.38
2017-04-04T00:20:50.117Z,848.38
2017-04-04T00:20:54.546Z,848.41
2017-04-04T00:20:58.974Z,848.41
2017-04-04T00:21:03.537Z,848.42
2017-04-04T00:21:07.962Z,848.4
2017-04-04T00:21:12.275Z,848.41
2017-04-04T00:21:16.632Z,848.43
2017-04-04T00:21:20.937Z,848.43
2017-04-04T00:21:25.363Z,848.43
2017-04-04T00:21:29.794Z,848.44
2017-04-04T00:21:34.268Z,848.45
2017-04-04T00:21:38.691Z,848.44
2017-04-04T00:21:43.011Z,848.42
2017-04-04T00:21:47.476Z,848.41
2017-04-04T00:21:51.900Z,848.45
2017-04-04T00:21:56.322Z,848.44
2017-04-04T00:22:00.757Z,848.44
2017-04-04T00:22:05.070Z,848.42
2017-04-04T00:22:09.377Z,848.43
2017-04-04T00:22:13.801Z,848.43
2017-04-04T00:22:17.995Z,848.42
2017-04-04T00:22:22.425Z,848.46
2017-04-04T00:22:26.852Z,848.42
2017-04-04T00:22:31.101Z,848.46
2017-04-04T00:22:35.526Z,848.45
2017-04-04T00:22:39.950Z,848.45
2017-04-04T00:22:44.380Z,848.47
2017-04-04T00:22:48.833Z,848.47
2017-04-04T00:22:53.259Z,848.46
2017-04-04T00:22:57.567Z,848.49
2017-04-04T00:23:02.345Z,848.47
2017-04-04T00:23:06.649Z,848.46
2017-04-04T00:23:11.076Z,848.5
2017-04-04T00:23:15.385Z,848.45
2017-04-04T00:23:19.807Z,848.47
2017-04-04T00:23:24.235Z,848.47
2017-04-04T00:23:28.655Z,848.45
2017-04-04T00:23:32.962Z,848.44
2017-04-04T00:23:37.439Z,848.48
2017-04-04T00:23:41.865Z,848.48
2017-04-04T00:23:46.292Z,848.5
2017-04-04T00:23:50.651Z,848.55
2017-04-04T00:23:54.850Z,848.54
2017-04-04T00:23:59.284Z,848.46
2017-04-04T00:24:03.721Z,848.48
2017-04-04T00:24:08.143Z,848.5
2017-04-04T00:24:12.443Z,848.5
2017-04-04T00:24:16.756Z,848.55
2017-04-04T00:24:21.180Z,848.57
2017-04-04T00:24:25.602Z,848.56
2017-04-04T00:24:30.034Z,848.56
2017-04-04T00:24:34.458Z,848.53
2017-04-04T00:24:38.884Z,848.56
2017-04-04T00:24:43.310Z,848.58
2017-04-04T00:24:47.733Z,848.58
2017-04-04T00:24:52.170Z,848.56
2017-04-04T00:24:56.635Z,848.55
2017-04-04T00:25:01.055Z,848.6
2017-04-04T00:25:05.695Z,848.59
2017-04-04T00:25:10.134Z,848.59
2017-04-04T00:25:14.438Z,848.57
2017-04-04T00:25:18.751Z,848.56
2017-04-04T00:25:23.178Z,848.59
2017-04-04T00:25:27.609Z,848.58
2017-04-04T00:25:32.034Z,848.6
2017-04-04T00:25:36.472Z,848.55
2017-04-04T00:25:40.900Z,848.56
2017-04-04T00:25:45.328Z,848.53
2017-04-04T00:25:49.631Z,848.53
2017-04-04T00:25:54.060Z,848.58
2017-04-04T00:25:58.491Z,848.58
2017-04-04T00:26:02.918Z,848.59
2017-04-04T00:26:07.119Z,848.58
2017-04-04T00:26:11.202Z,848.58
2017-04-04T00:26:15.507Z,848.6
2017-04-04T00:26:19.697Z,848.59
2017-04-04T00:26:24.165Z,848.62
2017-04-04T00:26:28.591Z,848.57
2017-04-04T00:26:33.020Z,848.62
2017-04-04T00:26:37.328Z,848.56
2017-04-04T00:26:41.747Z,848.6
2017-04-04T00:26:46.180Z,848.58
2017-04-04T00:26:50.602Z,848.59
2017-04-04T00:26:55.026Z,848.54
2017-04-04T00:26:59.451Z,848.59
2017-04-04T00:27:03.913Z,848.61
2017-04-04T00:27:08.220Z,848.59
2017-04-04T00:27:12.640Z,848.62
2017-04-04T00:27:17.067Z,848.62
2017-04-04T00:27:21.495Z,848.6
2017-04-04T00:27:25.804Z,848.62
2017-04-04T00:27:30.108Z,848.62
2017-04-04T00:27:34.421Z,848.62
2017-04-04T00:27:38.853Z,848.6
2017-04-04T00:27:43.273Z,848.6
2017-04-04T00:27:47.705Z,848.56
2017-04-04T00:27:52.128Z,848.55
2017-04-04T00:27:56.548Z,848.59
2017-04-04T00:28:00.856Z,848.6
2017-04-04T00:28:05.184Z,848.6
2017-04-04T00:28:09.495Z,848.54
2017-04-04T00:28:13.799Z,848.56
2017-04-04T00:28:18.103Z,848.58
2017-04-04T00:28:22.421Z,848.63
2017-04-04T00:28:26.725Z,848.62
2017-04-04T00:28:31.145Z,848.61
2017-04-04T00:28:35.569Z,848.6
2017-04-04T00:28:39.991Z,848.59
2017-04-04T00:28:44.297Z,848.59
2017-04-04T00:28:48.778Z,848.62
2017-04-04T00:28:53.203Z,848.63
2017-04-04T00:28:57.625Z,848.64
2017-04-04T00:29:02.064Z,848.66
2017-04-04T00:29:06.533Z,848.67
2017-04-04T00:29:10.840Z,848.66
2017-04-04T00:29:15.149Z,848.67
2017-04-04T00:29:19.570Z,848.64
2017-04-04T00:29:24.007Z,848.66
2017-04-04T00:29:28.311Z,848.63
2017-04-04T00:29:32.621Z,848.65
2017-04-04T00:29:37.061Z,848.66
2017-04-04T00:29:41.501Z,848.66
2017-04-04T00:29:45.923Z,848.7
2017-04-04T00:29:50.356Z,848.68
2017-04-04T00:29:54.781Z,848.69
2017-04-04T00:29:58.963Z,848.72
2017-04-04T00:30:03.641Z,848.7
2017-04-04T00:30:07.961Z,848.65
2017-04-04T00:30:12.385Z,848.7
2017-04-04T00:30:16.692Z,848.67
2017-04-04T00:30:21.124Z,848.64
2017-04-04T00:30:25.568Z,848.63
2017-04-04T00:30:29.988Z,848.69
2017-04-04T00:30:34.407Z,848.69
2017-04-04T00:30:38.838Z,848.68
2017-04-04T00:30:43.280Z,848.71
2017-04-04T00:30:47.709Z,848.68
2017-04-04T00:30:52.140Z,848.68
2017-04-04T00:30:56.336Z,848.64
2017-04-04T00:31:00.761Z,848.69
2017-04-04T00:31:05.486Z,848.7
2017-04-04T00:31:09.799Z,848.7
2017-04-04T00:31:14.112Z,848.69
2017-04-04T00:31:18.535Z,848.69
2017-04-04T00:31:22.841Z,848.68
2017-04-04T00:31:27.151Z,848.65
2017-04-04T00:31:31.581Z,848.71
2017-04-04T00:31:36.004Z,848.69
2017-04-04T00:31:40.198Z,848.71
2017-04-04T00:31:44.684Z,848.71
2017-04-04T00:31:48.989Z,848.71
2017-04-04T00:31:53.194Z,848.71
2017-04-04T00:31:57.624Z,848.69
2017-04-04T00:32:02.197Z,848.72
2017-04-04T00:32:06.619Z,848.68
2017-04-04T00:32:10.926Z,848.66
2017-04-04T00:32:15.351Z,848.66
2017-04-04T00:32:19.779Z,848.66
2017-04-04T00:32:24.085Z,848.7
2017-04-04T00:32:28.515Z,848.7
2017-04-04T00:32:32.827Z,848.68
2017-04-04T00:32:37.253Z,848.69
2017-04-04T00:32:41.678Z,848.72
2017-04-04T00:32:45.987Z,848.72
2017-04-04T00:32:50.457Z,848.72
2017-04-04T00:32:54.886Z,848.68
2017-04-04T00:32:59.306Z,848.7
2017-04-04T00:33:03.635Z,848.73
2017-04-04T00:33:08.245Z,848.66
2017-04-04T00:33:12.665Z,848.69
2017-04-04T00:33:17.097Z,848.7
2017-04-04T00:33:21.413Z,848.69
2017-04-04T00:33:25.838Z,848.66
2017-04-04T00:33:30.264Z,848.71
2017-04-04T00:33:34.685Z,848.66
2017-04-04T00:33:39.107Z,848.69
2017-04-04T00:33:43.414Z,848.69
2017-04-04T00:33:47.768Z,848.7
2017-04-04T00:33:52.212Z,848.69
2017-04-04T00:33:56.635Z,848.69
2017-04-04T00:34:01.058Z,848.69
2017-04-04T00:34:05.485Z,848.63
2017-04-04T00:34:09.791Z,848.63
2017-04-04T00:34:14.097Z,848.72
2017-04-04T00:34:18.543Z,848.68
2017-04-04T00:34:22.848Z,848.67
2017-04-04T00:34:27.157Z,848.66
2017-04-04T00:34:31.583Z,848.66
2017-04-04T00:34:36.003Z,848.67
2017-04-04T00:34:40.422Z,848.66
2017-04-04T00:34:44.731Z,848.67
2017-04-04T00:34:48.920Z,848.65
2017-04-04T00:34:53.350Z,848.64
2017-04-04T00:34:57.770Z,848.66
2017-04-04T00:35:02.192Z,848.64
2017-04-04T00:35:06.620Z,848.63
2017-04-04T00:35:11.051Z,848.65
2017-04-04T00:35:15.238Z,848.64
2017-04-04T00:35:19.433Z,848.6
2017-04-04T00:35:23.745Z,848.62
2017-04-04T00:35:28.171Z,848.64
2017-04-04T00:35:32.483Z,848.6
2017-04-04T00:35:36.907Z,848.61
2017-04-04T00:35:41.221Z,848.6
2017-04-04T00:35:45.419Z,848.6
2017-04-04T00:35:49.862Z,848.62
2017-04-04T00:35:54.300Z,848.59
2017-04-04T00:35:58.722Z,848.59
2017-04-04T00:36:03.250Z,848.58
2017-04-04T00:36:07.568Z,848.55
2017-04-04T00:36:11.879Z,848.57
2017-04-04T00:36:16.299Z,848.57
2017-04-04T00:36:20.732Z,848.54
2017-04-04T00:36:25.054Z,848.54
2017-04-04T00:36:29.362Z,848.57
2017-04-04T00:36:33.788Z,848.52
2017-04-04T00:36:38.102Z,848.57
2017-04-04T00:36:42.412Z,848.52
2017-04-04T00:36:46.837Z,848.52
2017-04-04T00:36:51.146Z,848.51
2017-04-04T00:36:55.569Z,848.5
2017-04-04T00:36:59.991Z,848.54
2017-04-04T00:37:04.715Z,848.53
2017-04-04T00:37:09.023Z,848.52
2017-04-04T00:37:13.456Z,848.52
2017-04-04T00:37:17.644Z,848.5
2017-04-04T00:37:21.951Z,848.48
2017-04-04T00:37:26.384Z,848.46
2017-04-04T00:37:30.691Z,848.47
2017-04-04T00:37:35.115Z,848.5
2017-04-04T00:37:39.307Z,848.47
2017-04-04T00:37:43.612Z,848.45
2017-04-04T00:37:48.038Z,848.45
2017-04-04T00:37:52.459Z,848.47
2017-04-04T00:37:56.891Z,848.44
2017-04-04T00:38:01.314Z,848.46
2017-04-04T00:38:06.088Z,848.45
2017-04-04T00:38:10.403Z,848.45
2017-04-04T00:38:14.757Z,848.45
2017-04-04T00:38:19.181Z,848.42
2017-04-04T00:38:23.487Z,848.43
2017-04-04T00:38:27.909Z,848.42
2017-04-04T00:38:32.332Z,848.41
2017-04-04T00:38:36.637Z,848.38
2017-04-04T00:38:41.061Z,848.35
2017-04-04T00:38:45.377Z,848.4
2017-04-04T00:38:49.680Z,848.4
2017-04-04T00:38:54.102Z,848.39
2017-04-04T00:38:58.414Z,848.39
2017-04-04T00:39:03.091Z,848.37
2017-04-04T00:39:07.518Z,848.4
2017-04-04T00:39:11.942Z,848.35
2017-04-04T00:39:16.252Z,848.35
2017-04-04T00:39:20.717Z,848.35
2017-04-04T00:39:25.153Z,848.31
2017-04-04T00:39:29.571Z,848.29
2017-04-04T00:39:33.770Z,848.3
2017-04-04T00:39:38.080Z,848.31
2017-04-04T00:39:42.502Z,848.31
2017-04-04T00:39:46.926Z,848.32
2017-04-04T00:39:51.360Z,848.3
2017-04-04T00:39:55.799Z,848.24
2017-04-04T00:40:00.231Z,848.28
2017-04-04T00:40:04.738Z,848.26
2017-04-04T00:40:09.046Z,848.23
2017-04-04T00:40:13.355Z,848.24
2017-04-04T00:40:17.784Z,848.27
2017-04-04T00:40:21.972Z,848.18
2017-04-04T00:40:26.283Z,848.24
2017-04-04T00:40:30.711Z,848.21
2017-04-04T00:40:35.136Z,848.23
2017-04-04T00:40:39.561Z,848.2
2017-04-04T00:40:43.988Z,848.2
2017-04-04T00:40:48.464Z,848.13
2017-04-04T00:40:52.897Z,848.2
2017-04-04T00:40:57.321Z,848.09
2017-04-04T00:41:01.634Z,848.11
2017-04-04T00:41:06.064Z,848.18
2017-04-04T00:41:10.371Z,848.15
2017-04-04T00:41:14.684Z,848.19
2017-04-04T00:41:18.999Z,848.09
2017-04-04T00:41:23.422Z,848.12
2017-04-04T00:41:27.852Z,848.11
2017-04-04T00:41:32.165Z,848.06
2017-04-04T00:41:36.643Z,848.09
2017-04-04T00:41:41.064Z,848.03
2017-04-04T00:41:45.484Z,848.04
2017-04-04T00:41:49.792Z,848.05
2017-04-04T00:41:54.163Z,848.09
2017-04-04T00:41:58.470Z,848.08
2017-04-04T00:42:03.201Z,848.06
2017-04-04T00:42:07.642Z,848.02
2017-04-04T00:42:12.071Z,848.01
2017-04-04T00:42:16.378Z,848.07
2017-04-04T00:42:20.732Z,847.99
2017-04-04T00:42:25.040Z,848
2017-04-04T00:42:29.352Z,847.98
2017-04-04T00:42:33.586Z,847.99
2017-04-04T00:42:38.015Z,847.94
2017-04-04T00:42:42.443Z,847.91
2017-04-04T00:42:46.873Z,847.92
2017-04-04T00:42:51.305Z,847.93
2017-04-04T00:42:55.622Z,847.93
2017-04-04T00:43:00.047Z,847.91
2017-04-04T00:43:04.720Z,847.89
2017-04-04T00:43:09.146Z,847.94
2017-04-04T00:43:13.573Z,847.91
2017-04-04T00:43:17.767Z,847.9
2017-04-04T00:43:22.188Z,847.82
2017-04-04T00:43:26.373Z,847.8
2017-04-04T00:43:30.687Z,847.85
2017-04-04T00:43:35.115Z,847.86
2017-04-04T00:43:39.541Z,847.85
2017-04-04T00:43:43.967Z,847.83
2017-04-04T00:43:48.394Z,847.78
2017-04-04T00:43:52.835Z,847.82
2017-04-04T00:43:57.142Z,847.8
2017-04-04T00:44:01.453Z,847.83
2017-04-04T00:44:05.742Z,847.77
2017-04-04T00:44:10.048Z,847.79
2017-04-04T00:44:14.476Z,847.77
2017-04-04T00:44:18.805Z,847.77
2017-04-04T00:44:23.262Z,847.78
2017-04-04T00:44:27.681Z,847.8
2017-04-04T00:44:32.110Z,847.76
2017-04-04T00:44:36.320Z,847.78
2017-04-04T00:44:40.744Z,847.75
2017-04-04T00:44:45.174Z,847.74
2017-04-04T00:44:49.488Z,847.72
2017-04-04T00:44:53.910Z,847.72
2017-04-04T00:44:58.331Z,847.7
2017-04-04T00:45:02.771Z,847.74
2017-04-04T00:45:07.108Z,847.7
2017-04-04T00:45:11.416Z,847.71
2017-04-04T00:45:15.604Z,847.69
2017-04-04T00:45:19.916Z,847.65
2017-04-04T00:45:24.226Z,847.66
2017-04-04T00:45:28.530Z,847.66
2017-04-04T00:45:32.960Z,847.67
2017-04-04T00:45:37.389Z,847.65
2017-04-04T00:45:41.740Z,847.6
2017-04-04T00:45:46.164Z,847.61
2017-04-04T00:45:50.585Z,847.6
2017-04-04T00:45:54.895Z,847.6
2017-04-04T00:45:59.208Z,847.61
2017-04-04T00:46:03.788Z,847.61
2017-04-04T00:46:08.094Z,847.6
2017-04-04T00:46:12.411Z,847.58
2017-04-04T00:46:16.726Z,847.59
2017-04-04T00:46:21.152Z,847.55
2017-04-04T00:46:25.574Z,847.54
2017-04-04T00:46:29.892Z,847.54
2017-04-04T00:46:34.317Z,847.53
2017-04-04T00:46:38.782Z,847.54
2017-04-04T00:46:43.204Z,847.52
2017-04-04T00:46:47.641Z,847.54
2017-04-04T00:46:52.120Z,847.51
2017-04-04T00:46:56.549Z,847.52
2017-04-04T00:47:00.978Z,847.48
2017-04-04T00:47:05.337Z,847.47
2017-04-04T00:47:09.761Z,847.48
2017-04-04T00:47:14.122Z,847.43
2017-04-04T00:47:18.358Z,847.45
2017-04-04T00:47:22.787Z,847.4
2017-04-04T00:47:27.216Z,847.43
2017-04-04T00:47:31.641Z,847.4
2017-04-04T00:47:35.994Z,847.4
2017-04-04T00:47:40.301Z,847.39
2017-04-04T00:47:44.731Z,847.4
2017-04-04T00:47:49.152Z,847.37
2017-04-04T00:47:53.580Z,847.4
2017-04-04T00:47:58.005Z,847.37
2017-04-04T00:48:02.427Z,847.37
2017-04-04T00:48:06.854Z,847.34
2017-04-04T00:48:11.163Z,847.36
2017-04-04T00:48:15.590Z,847.36
2017-04-04T00:48:19.777Z,847.34
2017-04-04T00:48:24.202Z,847.34
2017-04-04T00:48:28.626Z,847.32
2017-04-04T00:48:33.046Z,847.32
2017-04-04T00:48:37.464Z,847.3
2017-04-04T00:48:41.889Z,847.31
2017-04-04T00:48:46.359Z,847.26
2017-04-04T00:48:50.779Z,847.3
2017-04-04T00:48:55.213Z,847.25
2017-04-04T00:48:59.641Z,847.24
2017-04-04T00:49:04.175Z,847.26
2017-04-04T00:49:08.487Z,847.26
2017-04-04T00:49:12.907Z,847.28
2017-04-04T00:49:17.219Z,847.25
2017-04-04T00:49:21.529Z,847.2
2017-04-04T00:49:25.837Z,847.22
2017-04-04T00:49:30.266Z,847.22
2017-04-04T00:49:34.586Z,847.16
2017-04-04T00:49:38.933Z,847.19
2017-04-04T00:49:43.362Z,847.21
2017-04-04T00:49:47.804Z,847.17
2017-04-04T00:49:52.231Z,847.15
2017-04-04T00:49:56.535Z,847.17
2017-04-04T00:50:00.960Z,847.16
2017-04-04T00:50:05.404Z,847.11
2017-04-04T00:50:09.603Z,847.08
2017-04-04T00:50:13.912Z,847.09
2017-04-04T00:50:18.341Z,847.09
2017-04-04T00:50:22.650Z,847.08
2017-04-04T00:50:27.069Z,847.1
2017-04-04T00:50:31.495Z,847.12
2017-04-04T00:50:35.916Z,847.1
2017-04-04T00:50:40.339Z,847.09
2017-04-04T00:50:44.772Z,847.11
2017-04-04T00:50:49.195Z,847.11
2017-04-04T00:50:53.629Z,847.08
2017-04-04T00:50:57.935Z,847.1
2017-04-04T00:51:02.127Z,847.06
2017-04-04T00:51:06.559Z,847.08
2017-04-04T00:51:10.868Z,847.06
2017-04-04T00:51:15.177Z,847.1
2017-04-04T00:51:19.613Z,847.08
2017-04-04T00:51:23.920Z,847.07
2017-04-04T00:51:28.347Z,847.05
2017-04-04T00:51:32.822Z,847.04
2017-04-04T00:51:37.130Z,847.03
2017-04-04T00:51:41.323Z,847.01
2017-04-04T00:51:45.756Z,847.01
2017-04-04T00:51:50.104Z,847
2017-04-04T00:51:54.533Z,846.95
2017-04-04T00:51:58.840Z,846.95
2017-04-04T00:52:03.033Z,846.95
2017-04-04T00:52:07.346Z,846.96
2017-04-04T00:52:11.657Z,846.99
2017-04-04T00:52:16.083Z,846.96
2017-04-04T00:52:20.402Z,846.98
2017-04-04T00:52:24.706Z,846.94
2017-04-04T00:52:29.128Z,846.95
2017-04-04T00:52:33.558Z,846.88
2017-04-04T00:52:37.987Z,846.89
2017-04-04T00:52:42.410Z,846.9
2017-04-04T00:52:46.832Z,846.92
2017-04-04T00:52:51.140Z,846.92
2017-04-04T00:52:55.603Z,846.91
2017-04-04T00:53:00.029Z,846.89
2017-04-04T00:53:04.652Z,846.91
2017-04-04T00:53:09.082Z,846.86
2017-04-04T00:53:13.386Z,846.89
2017-04-04T00:53:17.697Z,846.86
2017-04-04T00:53:22.138Z,846.84
2017-04-04T00:53:26.557Z,846.84
2017-04-04T00:53:30.977Z,846.85
2017-04-04T00:53:35.283Z,846.84
2017-04-04T00:53:39.601Z,846.8
2017-04-04T00:53:44.024Z,846.81
2017-04-04T00:53:48.455Z,846.87
2017-04-04T00:53:52.894Z,846.82
2017-04-04T00:53:57.318Z,846.83
2017-04-04T00:54:01.808Z,846.82
2017-04-04T00:54:06.237Z,846.81
2017-04-04T00:54:10.667Z,846.74
2017-04-04T00:54:15.091Z,846.77
2017-04-04T00:54:19.397Z,846.78
2017-04-04T00:54:23.832Z,846.77
2017-04-04T00:54:28.257Z,846.77
2017-04-04T00:54:32.679Z,846.75
2017-04-04T00:54:37.100Z,846.74
2017-04-04T00:54:41.418Z,846.7
2017-04-04T00:54:45.894Z,846.72
2017-04-04T00:54:50.318Z,846.68
2017-04-04T00:54:54.630Z,846.74